Time;durP1;ratioP1;P1;durP2;ratioP2;P2;SDS_P1;SDS_P2;PMS_P1;PMS_P2;Temp;Humidity;BMP_temperature;BMP_pressure;BME280_temperature;BME280_humidity;BME280_pressure;Samples;Min_cycle;Max_cycle;Signal;HPM_P1;HPM_P2
2023/06/12 00:02:13;;;;;;;5.97;3.55;;;;;;;18.05;99.33;64869.72;5031554;28;20206;-58
2023/06/12 00:04:39;;;;;;;6.25;3.58;;;;;;;18.10;98.44;64877.78;5029976;28;20217;-59
2023/06/12 00:07:05;;;;;;;4.50;3.70;;;;;;;18.01;99.37;64863.31;5031133;28;20699;-59
2023/06/12 00:09:32;;;;;;;3.55;3.25;;;;;;;17.82;100.00;64844.91;5030957;28;20308;-59
2023/06/12 00:11:58;;;;;;;6.72;3.80;;;;;;;17.67;100.00;64830.38;5031526;28;20198;-58
2023/06/12 00:14:24;;;;;;;5.43;3.80;;;;;;;17.71;100.00;64834.78;5031182;28;20575;-58
2023/06/12 00:16:49;;;;;;;6.93;3.78;;;;;;;17.62;100.00;64820.31;5031303;28;20234;-59
2023/06/12 00:19:15;;;;;;;4.18;3.75;;;;;;;17.60;100.00;64820.66;5031158;28;20222;-58
2023/06/12 00:21:41;;;;;;;6.78;3.50;;;;;;;17.51;100.00;64810.75;5031454;28;20198;-58
2023/06/12 00:24:08;;;;;;;7.80;3.78;;;;;;;17.43;100.00;64801.91;5031066;28;20218;-59
2023/06/12 00:26:35;;;;;;;4.70;3.90;;;;;;;17.63;100.00;64823.97;5031286;28;20170;-59
2023/06/12 00:29:00;;;;;;;5.80;3.80;;;;;;;17.71;100.00;64829.69;5031027;28;20221;-56
2023/06/12 00:31:26;;;;;;;5.88;3.47;;;;;;;17.76;100.00;64837.72;5031383;28;20202;-57
2023/06/12 00:33:52;;;;;;;5.95;3.95;;;;;;;17.70;100.00;64828.56;5031000;28;20633;-56
2023/06/12 00:36:17;;;;;;;4.70;4.10;;;;;;;17.74;100.00;64838.06;5031287;28;20190;-57
2023/06/12 00:38:43;;;;;;;4.78;3.78;;;;;;;17.72;100.00;64833.31;5030965;28;20283;-58
2023/06/12 00:41:08;;;;;;;7.75;4.55;;;;;;;17.71;100.00;64832.78;5031108;28;20250;-56
2023/06/12 00:43:34;;;;;;;4.72;3.70;;;;;;;17.75;100.00;64836.63;5030805;28;20225;-57
2023/06/12 00:46:00;;;;;;;3.88;3.30;;;;;;;17.71;100.00;64832.22;5031060;28;20257;-57
2023/06/12 00:48:26;;;;;;;5.00;3.55;;;;;;;17.72;100.00;64831.31;5030992;28;20206;-59
2023/06/12 00:50:52;;;;;;;5.55;4.13;;;;;;;17.84;100.00;64844.56;5030972;28;20672;-58
2023/06/12 00:53:18;;;;;;;4.43;3.83;;;;;;;17.78;100.00;64837.94;5030515;28;20237;-60
2023/06/12 00:55:44;;;;;;;5.35;4.10;;;;;;;17.81;100.00;64840.69;5031077;28;20217;-60
2023/06/12 00:58:11;;;;;;;6.80;3.78;;;;;;;17.82;100.00;64847.44;5030738;28;20696;-61
2023/06/12 01:00:38;;;;;;;6.32;3.45;;;;;;;17.74;100.00;64840.63;5030831;28;20189;-61
2023/06/12 01:03:10;;;;;;;5.30;4.15;;;;;;;17.60;100.00;64821.19;5030520;28;20259;-61
2023/06/12 01:05:40;;;;;;;6.78;4.57;;;;;;;17.64;100.00;64827.59;5030859;28;20202;-61
2023/06/12 01:08:15;;;;;;;6.22;3.65;;;;;;;17.63;100.00;64823.97;5030614;28;20233;-61
2023/06/12 01:10:56;;;;;;;6.13;3.67;;;;;;;17.48;100.00;64805.41;5030693;28;20200;-61
2023/06/12 01:13:21;;;;;;;8.00;3.85;;;;;;;17.90;100.00;64850.59;5030563;28;20249;-61
2023/06/12 01:15:47;;;;;;;5.93;4.10;;;;;;;17.79;100.00;64843.59;5030608;28;20689;-60
2023/06/12 01:18:15;;;;;;;5.88;3.75;;;;;;;17.68;100.00;64826.91;5030342;28;20272;-57
2023/06/12 01:20:40;;;;;;;5.38;3.95;;;;;;;17.63;100.00;64821.41;5030468;28;20260;-57
2023/06/12 01:23:18;;;;;;;5.72;4.05;;;;;;;18.02;100.00;64864.41;5030326;28;20206;-57
2023/06/12 01:25:54;;;;;;;4.88;4.32;;;;;;;17.98;100.00;64860.00;5030338;28;20722;-56
2023/06/12 01:28:56;;;;;;;4.40;3.75;;;;;;;18.10;100.00;64877.78;5030460;28;20316;-57
2023/06/12 01:31:31;;;;;;;7.78;3.80;;;;;;;17.91;100.00;64851.72;5030502;28;20710;-56
2023/06/12 01:34:07;;;;;;;9.73;4.22;;;;;;;17.79;100.00;64841.59;5030064;28;20220;-56
2023/06/12 01:36:37;;;;;;;9.02;4.18;;;;;;;17.72;100.00;64836.41;5030518;28;20206;-57
2023/06/12 01:39:05;;;;;;;7.28;4.38;;;;;;;17.86;100.00;64851.84;5030393;28;20206;-58
2023/06/12 01:41:31;;;;;;;10.23;4.20;;;;;;;17.76;100.00;64837.72;5028858;28;20210;-57
2023/06/12 01:44:06;;;;;;;12.75;4.63;;;;;;;17.71;100.00;64834.78;5029948;28;20301;-56
2023/06/12 01:46:32;;;;;;;8.48;4.88;;;;;;;17.51;100.00;64813.81;5030157;28;20213;-57
2023/06/12 01:48:57;;;;;;;6.20;4.45;;;;;;;17.41;100.00;64800.22;5029869;28;20206;-56
2023/06/12 01:51:22;;;;;;;10.50;5.75;;;;;;;17.56;100.00;64816.78;5028916;28;20660;-62
2023/06/12 01:53:48;;;;;;;4.97;4.22;;;;;;;17.87;100.00;64850.41;5029945;28;20293;-61
2023/06/12 01:56:14;;;;;;;5.72;4.75;;;;;;;17.88;100.00;64851.50;5030110;28;20267;-56
2023/06/12 01:58:40;;;;;;;6.82;4.68;;;;;;;17.76;100.00;64840.28;5029854;28;20688;-56
2023/06/12 02:01:05;;;;;;;8.27;4.32;;;;;;;17.72;100.00;64833.88;5029994;28;20209;-55
2023/06/12 02:03:32;;;;;;;6.88;4.72;;;;;;;17.79;100.00;64843.59;5029871;28;20664;-60
2023/06/12 02:05:58;;;;;;;4.03;3.63;;;;;;;17.84;100.00;64847.09;5030309;28;20202;-62
2023/06/12 02:08:23;;;;;;;6.10;4.50;;;;;;;17.90;100.00;64855.72;5029396;28;20227;-61
2023/06/12 02:10:49;;;;;;;6.47;4.88;;;;;;;18.00;100.00;64864.75;5029325;28;20273;-60
2023/06/12 02:13:14;;;;;;;7.30;3.85;;;;;;;17.90;100.00;64856.25;5029496;28;20250;-61
2023/06/12 02:15:39;;;;;;;5.18;4.28;;;;;;;17.94;100.00;64857.56;5028546;28;20221;-57
2023/06/12 02:18:05;;;;;;;7.55;4.53;;;;;;;18.07;100.00;64875.03;5029684;28;20207;-59
2023/06/12 02:20:31;;;;;;;5.05;4.20;;;;;;;18.03;100.00;64870.06;5029872;28;20209;-61
2023/06/12 02:22:56;;;;;;;5.05;4.15;;;;;;;17.92;100.00;64852.81;5029801;28;20692;-56
2023/06/12 02:25:21;;;;;;;5.45;4.30;;;;;;;17.75;100.00;64836.63;5029797;28;20195;-56
2023/06/12 02:27:47;;;;;;;8.68;4.40;;;;;;;17.77;100.00;64841.38;5029579;28;20703;-57
2023/06/12 02:30:12;;;;;;;6.38;4.25;;;;;;;17.98;100.00;64862.53;5029446;28;20214;-56
2023/06/12 02:32:39;;;;;;;6.03;4.30;;;;;;;18.00;100.00;64866.72;5032736;28;20633;-56
2023/06/12 02:35:08;;;;;;;4.57;3.80;;;;;;;18.15;100.00;64878.75;5032911;28;20408;-57
2023/06/12 02:37:35;;;;;;;4.78;4.20;;;;;;;18.21;100.00;64890.47;5033012;28;20237;-56
2023/06/12 02:40:01;;;;;;;5.13;3.80;;;;;;;18.03;100.00;64868.06;5033050;28;20302;-55
2023/06/12 02:42:26;;;;;;;8.05;4.15;;;;;;;17.93;100.00;64859.03;5032742;28;20244;-57
2023/06/12 02:44:52;;;;;;;5.20;4.20;;;;;;;17.81;100.00;64843.81;5032820;28;20214;-57
2023/06/12 02:47:18;;;;;;;4.22;3.80;;;;;;;17.73;100.00;64834.44;5032852;28;20208;-56
2023/06/12 02:49:44;;;;;;;7.53;3.67;;;;;;;17.73;100.00;64835.00;5032626;28;20712;-56
2023/06/12 02:52:12;;;;;;;6.20;4.55;;;;;;;17.68;100.00;64832.00;5032730;28;20343;-56
2023/06/12 02:54:38;;;;;;;5.18;3.95;;;;;;;17.74;100.00;64833.53;5032462;28;20314;-56
2023/06/12 02:57:04;;;;;;;4.97;4.20;;;;;;;17.81;100.00;64843.81;5032687;28;20273;-57
2023/06/12 02:59:36;;;;;;;7.32;3.88;;;;;;;17.89;100.00;64852.63;5032362;28;20216;-61
2023/06/12 03:02:02;;;;;;;9.10;4.57;;;;;;;17.85;100.00;64848.22;5032735;28;20260;-61
2023/06/12 03:04:27;;;;;;;6.85;4.30;;;;;;;17.81;100.00;64846.34;5032659;28;20214;-60
2023/06/12 03:06:53;;;;;;;5.13;3.40;;;;;;;18.06;100.00;64870.81;5031062;28;20245;-61
2023/06/12 03:09:19;;;;;;;5.47;3.85;;;;;;;18.39;100.00;64905.22;5032236;28;20210;-62
2023/06/12 03:11:47;;;;;;;5.57;3.65;;;;;;;18.90;100.00;64963.50;5032527;28;20201;-62
2023/06/12 03:14:12;;;;;;;5.28;4.07;;;;;;;18.67;100.00;64937.56;5032174;28;20711;-61
2023/06/12 03:16:38;;;;;;;6.85;4.00;;;;;;;18.38;100.00;64908.66;5032399;28;20198;-61
2023/06/12 03:19:04;;;;;;;6.97;4.40;;;;;;;18.23;100.00;64887.00;5032198;28;20210;-61
2023/06/12 03:21:29;;;;;;;5.57;4.07;;;;;;;18.17;100.00;64883.50;5032194;28;20264;-61
2023/06/12 03:23:56;;;;;;;6.47;3.72;;;;;;;18.01;100.00;64865.84;5032039;28;20257;-60
2023/06/12 03:26:22;;;;;;;6.97;3.72;;;;;;;18.05;100.00;64870.25;5032011;28;20200;-62
2023/06/12 03:28:49;;;;;;;5.63;4.28;;;;;;;18.08;100.00;64873.56;5031905;28;20214;-61
2023/06/12 03:31:15;;;;;;;6.63;4.13;;;;;;;18.19;100.00;64885.69;5032095;28;20194;-60
2023/06/12 03:33:40;;;;;;;6.03;4.10;;;;;;;18.10;100.00;64875.22;5032038;28;20244;-58
2023/06/12 03:36:06;;;;;;;7.05;4.00;;;;;;;17.83;100.00;64848.00;5032264;28;20702;-59
2023/06/12 03:38:31;;;;;;;6.80;4.32;;;;;;;17.79;100.00;64843.59;5032160;28;20664;-59
2023/06/12 03:40:56;;;;;;;9.68;5.25;;;;;;;17.66;100.00;64826.69;5032172;28;20697;-59
2023/06/12 03:43:22;;;;;;;9.07;4.70;;;;;;;17.76;100.00;64837.72;5030626;28;20210;-59
2023/06/12 03:45:47;;;;;;;4.53;3.97;;;;;;;17.86;100.00;64846.19;5032033;28;20668;-58
2023/06/12 03:48:13;;;;;;;10.82;5.18;;;;;;;17.83;100.00;64845.44;5031748;28;20206;-59
2023/06/12 03:50:38;;;;;;;7.00;5.13;;;;;;;17.89;100.00;64850.06;5031859;28;20198;-61
2023/06/12 03:53:04;;;;;;;6.53;4.57;;;;;;;17.81;100.00;64843.81;5031680;28;20316;-60
2023/06/12 03:55:29;;;;;;;5.95;5.18;;;;;;;17.95;100.00;64861.78;5031802;28;20198;-61
2023/06/12 03:57:55;;;;;;;8.02;5.15;;;;;;;18.06;100.00;64870.81;5031535;28;20289;-59
2023/06/12 04:00:21;;;;;;;7.00;5.07;;;;;;;18.10;100.00;64875.75;5031654;28;20182;-59
2023/06/12 04:02:46;;;;;;;9.80;5.97;;;;;;;18.21;100.00;64887.91;5031790;28;20202;-59
2023/06/12 04:05:12;;;;;;;10.95;5.15;;;;;;;18.59;100.00;64929.28;5055305;23;20226;-59
2023/06/12 04:07:38;;;;;;;6.85;5.18;;;;;;;18.66;100.00;64937.00;5051474;28;20220;-57
2023/06/12 04:10:05;;;;;;;7.70;4.68;;;;;;;18.46;100.00;64914.94;5051124;28;20287;-56
2023/06/12 04:12:31;;;;;;;8.07;4.05;;;;;;;18.30;100.00;64897.81;5051102;28;20196;-57
2023/06/12 04:14:56;;;;;;;7.35;4.57;;;;;;;18.14;100.00;64879.66;5051180;28;20241;-57
2023/06/12 04:17:22;;;;;;;10.60;4.80;;;;;;;18.13;100.00;64879.09;5051098;28;20224;-56
2023/06/12 04:19:49;;;;;;;8.10;4.53;;;;;;;18.05;100.00;64872.25;5051077;28;20636;-57
2023/06/12 04:22:16;;;;;;;9.38;4.28;;;;;;;18.18;100.00;64886.59;5051232;28;20260;-56
2023/06/12 04:24:43;;;;;;;10.02;4.95;;;;;;;18.21;100.00;64885.34;5050772;28;20228;-55
2023/06/12 04:27:11;;;;;;;11.07;5.07;;;;;;;18.12;100.00;64877.97;5050929;28;20292;-56
2023/06/12 04:29:38;;;;;;;13.77;5.70;;;;;;;17.98;100.00;64862.53;5050615;28;20245;-56
2023/06/12 04:32:06;;;;;;;11.32;7.43;;;;;;;17.86;100.00;64849.31;5050890;28;20197;-58
2023/06/12 04:34:39;;;;;;;10.57;6.13;;;;;;;17.82;100.00;64847.44;5050737;28;20217;-56
2023/06/12 04:37:08;;;;;;;8.50;5.80;;;;;;;17.91;100.00;64857.38;5050828;28;20197;-55
2023/06/12 04:39:45;;;;;;;8.02;5.05;;;;;;;17.92;100.00;64852.81;5050703;28;20271;-56
2023/06/12 04:42:14;;;;;;;22.65;20.40;;;;;;;18.33;100.00;64900.59;5051004;28;20208;-55
2023/06/12 04:44:39;;;;;;;14.43;10.48;;;;;;;18.55;100.00;64924.31;5050537;28;20219;-56
2023/06/12 04:47:08;;;;;;;14.85;8.88;;;;;;;18.96;100.00;64969.56;5050816;28;20178;-57
2023/06/12 04:49:35;;;;;;;10.55;6.28;;;;;;;19.42;100.00;65019.78;5050446;28;20221;-57
2023/06/12 04:52:03;;;;;;;13.27;5.95;;;;;;;19.59;100.00;65041.13;5050784;28;20201;-58
2023/06/12 04:54:35;;;;;;;6.15;5.40;;;;;;;19.70;100.00;65048.72;5050348;28;20291;-57
2023/06/12 04:57:03;;;;;;;12.82;5.70;;;;;;;19.57;100.00;65036.38;5050731;28;20272;-57
2023/06/12 04:59:30;;;;;;;10.82;5.15;;;;;;;19.70;100.00;65051.28;5050419;28;20236;-58
2023/06/12 05:01:57;;;;;;;7.68;4.40;;;;;;;19.85;100.00;65067.84;5050355;28;20292;-57
2023/06/12 05:04:24;;;;;;;6.35;3.90;;;;;;;19.89;100.00;65069.69;5050571;28;20235;-57
2023/06/12 05:06:51;;;;;;;8.57;4.00;;;;;;;20.27;100.00;65113.16;5050584;28;20263;-59
2023/06/12 05:09:17;;;;;;;5.55;3.83;;;;;;;20.30;97.55;65116.47;5050407;28;20279;-55
2023/06/12 05:11:43;;;;;;;9.80;4.97;;;;;;;20.17;100.00;65102.06;5050647;28;20205;-57
2023/06/12 05:14:09;;;;;;;5.45;4.15;;;;;;;20.37;100.00;65121.63;5050153;28;20632;-58
2023/06/12 05:16:34;;;;;;;5.90;4.55;;;;;;;20.60;100.00;65150.19;5050411;28;20197;-58
2023/06/12 05:19:00;;;;;;;6.95;4.60;;;;;;;20.75;100.00;65166.19;5034306;28;20257;-57
2023/06/12 05:21:25;;;;;;;16.20;6.75;;;;;;;20.85;98.65;65180.38;5030226;28;20198;-58
2023/06/12 05:23:51;;;;;;;8.35;4.43;;;;;;;20.84;96.96;65178.72;5030373;28;20302;-56
2023/06/12 05:26:16;;;;;;;8.32;4.68;;;;;;;20.94;99.17;65184.63;5028301;28;20223;-56
2023/06/12 05:28:41;;;;;;;9.52;4.90;;;;;;;20.89;96.10;65179.09;5029570;28;20589;-56
2023/06/12 05:31:07;;;;;;;10.98;5.38;;;;;;;20.99;90.29;65190.16;5030138;28;20216;-57
2023/06/12 05:33:33;;;;;;;9.90;4.65;;;;;;;20.71;93.36;65162.31;5028955;28;20218;-63
2023/06/12 05:35:59;;;;;;;7.35;5.07;;;;;;;20.43;94.45;65128.81;5028634;28;20256;-58
2023/06/12 05:38:25;;;;;;;8.82;5.22;;;;;;;20.36;95.55;65123.09;5026309;28;20252;-62
2023/06/12 05:40:51;;;;;;;11.23;5.40;;;;;;;20.46;92.76;65132.13;5026824;28;20178;-62
2023/06/12 05:43:16;;;;;;;7.60;4.88;;;;;;;20.28;95.24;65114.78;5028350;28;20289;-63
2023/06/12 05:45:42;;;;;;;8.52;5.35;;;;;;;20.08;93.57;65093.25;5029937;28;20699;-62
2023/06/12 05:48:07;;;;;;;10.88;4.95;;;;;;;20.20;94.27;65105.97;5027700;28;20650;-61
2023/06/12 05:50:33;;;;;;;8.07;5.22;;;;;;;20.26;93.57;65114.59;5029063;28;20202;-61
2023/06/12 05:52:58;;;;;;;8.00;5.25;;;;;;;20.02;93.94;65086.06;5011509;28;20564;-61
2023/06/12 05:55:23;;;;;;;8.77;5.82;;;;;;;19.84;93.73;65066.16;5029993;28;20205;-63
2023/06/12 05:57:49;;;;;;;11.10;5.32;;;;;;;19.66;95.23;65043.75;5030050;28;20269;-62
2023/06/12 06:00:16;;;;;;;12.70;5.38;;;;;;;19.65;97.38;65043.19;5029696;28;20533;-62
2023/06/12 06:02:42;;;;;;;10.68;5.55;;;;;;;19.68;96.67;65051.06;5029178;28;20194;-62
2023/06/12 06:05:09;;;;;;;8.75;5.40;;;;;;;19.94;95.45;65077.22;5030123;28;20342;-62
2023/06/12 06:07:36;;;;;;;10.77;5.68;;;;;;;20.00;100.00;65084.41;5032481;28;20197;-62
2023/06/12 06:10:04;;;;;;;13.43;6.90;;;;;;;20.30;93.33;65114.44;5033699;28;20221;-58
2023/06/12 06:12:30;;;;;;;8.07;4.90;;;;;;;20.19;91.03;65101.72;5031130;28;20190;-58
2023/06/12 06:14:55;;;;;;;7.10;5.05;;;;;;;20.13;100.00;65095.09;5032943;28;20206;-58
2023/06/12 06:17:21;;;;;;;6.97;4.93;;;;;;;20.51;94.31;65137.66;5033144;28;20795;-57
2023/06/12 06:19:46;;;;;;;7.25;4.82;;;;;;;20.59;98.15;65148.50;5033008;28;20214;-58
2023/06/12 06:22:12;;;;;;;6.63;4.47;;;;;;;20.89;98.65;65181.66;5032944;28;20672;-57
2023/06/12 06:24:37;;;;;;;5.47;4.30;;;;;;;21.16;96.54;65211.00;5032423;28;20261;-57
2023/06/12 06:27:03;;;;;;;8.82;4.70;;;;;;;21.36;92.61;65230.53;5032740;28;20190;-59
2023/06/12 06:29:29;;;;;;;11.80;5.05;;;;;;;21.60;90.20;65259.66;5031824;28;20218;-57
2023/06/12 06:31:54;;;;;;;15.48;5.10;;;;;;;21.66;84.19;65263.72;5032783;28;20229;-58
2023/06/12 06:34:20;;;;;;;8.60;5.20;;;;;;;21.45;87.18;65237.94;5032666;28;20680;-57
2023/06/12 06:36:45;;;;;;;8.25;4.88;;;;;;;21.48;88.55;65246.94;5033092;28;20284;-56
2023/06/12 06:39:11;;;;;;;9.65;4.95;;;;;;;21.70;89.33;65268.72;5032976;28;20414;-58
2023/06/12 06:41:37;;;;;;;6.05;5.05;;;;;;;21.81;82.32;65279.78;5032463;28;20202;-59
2023/06/12 06:44:03;;;;;;;6.00;4.55;;;;;;;21.36;88.10;65231.09;5032410;28;20218;-58
2023/06/12 06:46:28;;;;;;;7.38;4.90;;;;;;;21.28;89.49;65219.69;5032781;28;20271;-58
2023/06/12 06:48:54;;;;;;;15.45;5.57;;;;;;;21.41;90.46;65238.66;5014873;28;20716;-58
2023/06/12 06:51:19;;;;;;;9.50;4.78;;;;;;;21.74;89.75;65273.13;5032726;28;20202;-57
2023/06/12 06:53:45;;;;;;;7.32;5.68;;;;;;;21.97;88.55;65298.06;5032407;28;20373;-57
2023/06/12 06:56:10;;;;;;;10.32;7.22;;;;;;;22.23;87.56;65326.28;5032533;28;20213;-58
2023/06/12 06:58:36;;;;;;;7.63;5.60;;;;;;;22.38;86.25;65342.88;5032426;28;20714;-57
2023/06/12 07:01:01;;;;;;;13.43;5.40;;;;;;;22.50;86.22;65356.16;5032466;28;20205;-57
2023/06/12 07:03:27;;;;;;;9.63;6.75;;;;;;;22.48;86.74;65353.94;5032351;28;20209;-59
2023/06/12 07:05:53;;;;;;;9.52;6.22;;;;;;;22.57;86.67;65363.91;5032532;28;20178;-60
2023/06/12 07:08:18;;;;;;;11.25;5.68;;;;;;;22.63;86.96;65370.56;5032561;28;20224;-60
2023/06/12 07:10:44;;;;;;;7.72;5.95;;;;;;;22.72;86.62;65380.00;5032660;28;20551;-60
2023/06/12 07:13:09;;;;;;;8.55;5.28;;;;;;;22.74;86.39;65382.75;5032608;28;20610;-60
2023/06/12 07:15:35;;;;;;;7.95;5.45;;;;;;;22.80;86.66;65389.41;5032924;28;20194;-60
2023/06/12 07:18:00;;;;;;;9.57;5.60;;;;;;;22.88;86.79;65400.84;5032687;28;20355;-61
2023/06/12 07:20:25;;;;;;;10.55;5.70;;;;;;;23.06;85.68;65422.78;5032678;28;20232;-62
2023/06/12 07:22:51;;;;;;;6.90;5.13;;;;;;;23.11;85.13;65423.72;5032484;28;20206;-62
2023/06/12 07:25:17;;;;;;;9.77;5.13;;;;;;;23.18;83.47;65430.94;5032635;28;20202;-61
2023/06/12 07:27:43;;;;;;;6.35;4.65;;;;;;;23.29;79.46;65443.13;5032621;28;20194;-61
2023/06/12 07:30:09;;;;;;;8.50;4.65;;;;;;;23.03;77.79;65414.31;5032402;28;20797;-64
2023/06/12 07:32:35;;;;;;;7.10;4.45;;;;;;;22.82;82.55;65389.06;5032448;28;20202;-61
2023/06/12 07:35:01;;;;;;;7.78;4.65;;;;;;;22.85;84.39;65394.94;5031967;28;20210;-61
2023/06/12 07:37:29;;;;;;;6.80;4.88;;;;;;;23.03;82.58;65414.31;5032237;28;20252;-62
2023/06/12 07:39:55;;;;;;;6.13;4.40;;;;;;;23.17;78.80;65430.38;5032301;28;20255;-58
2023/06/12 07:42:20;;;;;;;7.75;4.93;;;;;;;23.08;79.88;65422.44;5032518;28;20281;-59
2023/06/12 07:44:45;;;;;;;5.25;4.15;;;;;;;23.03;83.01;65414.88;5032102;28;20210;-58
2023/06/12 07:47:11;;;;;;;6.00;4.00;;;;;;;23.13;79.58;65425.94;5032376;28;20209;-59
2023/06/12 07:49:36;;;;;;;7.18;3.75;;;;;;;23.00;80.11;65411.56;5014565;28;20268;-58
2023/06/12 07:52:02;;;;;;;6.43;4.40;;;;;;;22.99;82.89;65409.88;5032201;28;20190;-57
2023/06/12 07:54:27;;;;;;;5.45;4.13;;;;;;;23.04;81.98;65413.41;5032081;28;20218;-57
2023/06/12 07:56:53;;;;;;;6.55;4.35;;;;;;;23.05;82.62;65417.09;5031831;28;20194;-57
2023/06/12 07:59:19;;;;;;;7.03;4.00;;;;;;;23.12;81.89;65424.28;5032450;28;20267;-57
2023/06/12 08:01:45;;;;;;;6.80;4.43;;;;;;;23.16;80.29;65426.16;5031980;28;20420;-57
2023/06/12 08:04:11;;;;;;;6.32;4.35;;;;;;;23.01;82.63;65412.09;5031753;28;20243;-57
2023/06/12 08:06:40;;;;;;;8.43;5.05;;;;;;;23.08;78.26;65419.84;5031939;28;20649;-57
2023/06/12 08:09:06;;;;;;;5.22;3.97;;;;;;;23.03;83.80;65412.28;5032088;28;20222;-57
2023/06/12 08:11:32;;;;;;;8.02;4.32;;;;;;;22.98;79.71;65409.34;5031997;28;20210;-57
2023/06/12 08:14:03;;;;;;;6.72;4.10;;;;;;;22.94;78.43;65399.75;5031873;28;20575;-58
2023/06/12 08:16:31;;;;;;;7.25;4.13;;;;;;;22.65;77.67;65375.34;5031904;28;20201;-57
2023/06/12 08:18:56;;;;;;;7.10;4.10;;;;;;;22.46;78.39;65351.75;5031634;28;20311;-56
2023/06/12 08:21:23;;;;;;;9.15;4.13;;;;;;;22.32;79.16;65336.25;5031805;28;20660;-59
2023/06/12 08:23:49;;;;;;;4.85;4.28;;;;;;;22.51;82.34;65357.81;5014055;28;20206;-57
2023/06/12 08:26:16;;;;;;;5.53;4.32;;;;;;;22.57;79.96;65366.47;5031562;28;20209;-57
2023/06/12 08:28:41;;;;;;;6.75;3.88;;;;;;;22.69;82.27;65377.22;5031165;28;20206;-58
2023/06/12 08:31:06;;;;;;;5.63;3.95;;;;;;;22.94;82.82;65401.78;5031568;28;20205;-56
2023/06/12 08:33:32;;;;;;;6.25;4.03;;;;;;;23.30;82.13;65444.78;5031672;28;20556;-61
2023/06/12 08:36:00;;;;;;;4.50;3.75;;;;;;;23.66;80.03;65481.00;5031685;28;20202;-57
2023/06/12 08:38:26;;;;;;;5.22;4.13;;;;;;;23.93;78.52;65514.06;5031447;28;20771;-57
2023/06/12 08:40:54;;;;;;;7.03;4.10;;;;;;;24.12;77.15;65537.72;5031339;28;20292;-58
2023/06/12 08:43:20;;;;;;;5.57;3.50;;;;;;;24.21;71.21;65544.00;5031391;28;20397;-57
2023/06/12 08:45:50;;;;;;;7.43;3.97;;;;;;;24.13;72.60;65533.69;5031311;28;20739;-56
2023/06/12 08:48:17;;;;;;;4.68;3.78;;;;;;;23.87;77.11;65507.41;5031473;28;20233;-59
2023/06/12 08:50:47;;;;;;;5.75;3.50;;;;;;;23.64;69.41;65481.34;5031343;28;20245;-60
2023/06/12 08:53:15;;;;;;;5.93;3.45;;;;;;;23.57;75.36;65474.16;5013293;28;20235;-61
2023/06/12 08:55:41;;;;;;;4.70;3.40;;;;;;;23.41;73.03;65455.88;5031321;28;20668;-59
2023/06/12 08:58:10;;;;;;;4.07;3.20;;;;;;;23.58;71.84;65474.72;5031327;28;20202;-59
2023/06/12 09:00:36;;;;;;;7.57;3.95;;;;;;;23.79;69.96;65498.00;5031344;28;20182;-59
2023/06/12 09:03:04;;;;;;;5.07;3.60;;;;;;;23.95;69.01;65513.16;5030920;28;20272;-60
2023/06/12 09:05:37;;;;;;;6.65;3.67;;;;;;;24.04;71.94;65526.28;5030877;28;20202;-59
2023/06/12 09:08:04;;;;;;;6.72;4.03;;;;;;;23.99;69.02;65520.16;5031143;28;20224;-59
2023/06/12 09:10:33;;;;;;;10.27;4.22;;;;;;;23.82;68.17;65499.28;5031014;28;20202;-58
2023/06/12 09:13:01;;;;;;;5.30;3.63;;;;;;;23.87;68.68;65506.88;5030714;28;20206;-60
2023/06/12 09:15:27;;;;;;;6.13;3.97;;;;;;;23.83;66.05;65502.44;5030908;28;20194;-59
2023/06/12 09:17:54;;;;;;;4.97;4.10;;;;;;;23.39;69.28;65451.66;5030991;28;20205;-59
2023/06/12 09:20:33;;;;;;;10.05;4.55;;;;;;;23.21;71.28;65431.69;5030745;28;20202;-59
2023/06/12 09:23:04;;;;;;;5.38;4.07;;;;;;;23.39;72.55;65453.66;5030627;28;20210;-60
2023/06/12 09:25:35;;;;;;;10.25;4.70;;;;;;;23.30;70.91;65444.78;5030761;28;20304;-59
2023/06/12 09:28:03;;;;;;;7.07;3.70;;;;;;;23.31;71.29;65445.91;5030975;28;20205;-60
2023/06/12 09:30:31;;;;;;;5.35;3.97;;;;;;;23.27;70.49;65438.88;5030936;28;20291;-61
2023/06/12 09:32:59;;;;;;;8.73;4.30;;;;;;;23.30;71.01;65444.78;5030638;28;20656;-60
2023/06/12 09:35:24;;;;;;;5.10;3.45;;;;;;;23.05;71.91;65414.50;5030858;28;20601;-57
2023/06/12 09:37:50;;;;;;;7.65;3.65;;;;;;;23.03;70.61;65414.31;5030556;28;20301;-57
2023/06/12 09:40:15;;;;;;;6.30;3.50;;;;;;;23.26;72.10;65439.78;5030277;28;20264;-57
2023/06/12 09:42:42;;;;;;;5.45;4.07;;;;;;;23.42;69.37;65454.41;5016218;28;20359;-60
2023/06/12 09:45:23;;;;;;;5.35;4.05;;;;;;;23.06;70.07;65415.63;4999609;28;20224;-58
2023/06/12 09:47:51;;;;;;;5.35;3.47;;;;;;;23.18;72.45;65430.94;5016064;28;20714;-59
2023/06/12 09:50:18;;;;;;;7.10;4.20;;;;;;;23.07;70.43;65419.28;5032787;28;20292;-61
2023/06/12 09:52:48;;;;;;;6.10;4.13;;;;;;;22.94;70.07;65404.91;5034027;28;20201;-56
2023/06/12 09:55:18;;;;;;;5.22;3.92;;;;;;;22.97;70.91;65408.22;5034105;28;20370;-57
2023/06/12 09:57:51;;;;;;;5.90;3.67;;;;;;;22.89;69.70;65399.38;5033924;28;20206;-57
2023/06/12 10:00:19;;;;;;;5.82;3.45;;;;;;;22.70;70.59;65378.34;5034034;28;20230;-58
2023/06/12 10:03:06;;;;;;;3.63;3.28;;;;;;;22.46;70.09;65349.72;5033798;28;20234;-57
2023/06/12 10:05:40;;;;;;;4.00;3.50;;;;;;;22.42;70.80;65345.28;5033829;28;20285;-60
2023/06/12 10:08:07;;;;;;;5.15;3.80;;;;;;;22.33;69.88;65337.34;5033924;28;20190;-58
2023/06/12 10:10:35;;;;;;;6.28;3.33;;;;;;;22.34;68.87;65335.88;5033103;28;20213;-56
2023/06/12 10:13:02;;;;;;;5.30;3.17;;;;;;;22.39;69.06;65343.97;5033086;28;20209;-58
2023/06/12 10:15:31;;;;;;;6.70;3.55;;;;;;;22.18;69.81;65320.75;5032794;28;20720;-56
2023/06/12 10:17:57;;;;;;;4.90;3.35;;;;;;;22.22;69.95;65325.16;5015544;28;20195;-57
2023/06/12 10:20:24;;;;;;;4.65;3.15;;;;;;;22.27;75.25;65330.69;5033429;28;20317;-55
2023/06/12 10:22:52;;;;;;;7.93;3.67;;;;;;;22.30;70.30;65334.56;5033719;28;20263;-57
2023/06/12 10:25:18;;;;;;;7.10;4.00;;;;;;;21.96;71.74;65296.41;5033419;28;20212;-57
2023/06/12 10:27:43;;;;;;;7.20;3.47;;;;;;;22.14;71.14;65318.88;5033489;28;20202;-57
2023/06/12 10:30:11;;;;;;;3.85;3.15;;;;;;;22.12;72.26;65314.09;5033338;28;20210;-56
2023/06/12 10:32:38;;;;;;;4.07;3.00;;;;;;;21.99;70.50;65299.72;5033417;28;20198;-56
2023/06/12 10:35:04;;;;;;;7.60;3.83;;;;;;;21.99;73.77;65302.28;5032816;28;20316;-56
2023/06/12 10:37:32;;;;;;;5.05;3.35;;;;;;;21.83;72.37;65284.56;5033059;28;20764;-57
2023/06/12 10:40:15;;;;;;;3.60;2.95;;;;;;;21.83;72.14;65282.00;5033487;28;20210;-58
2023/06/12 10:42:53;;;;;;;5.63;2.88;;;;;;;21.85;71.01;65281.66;5032582;28;20210;-60
2023/06/12 10:45:22;;;;;;;3.97;2.40;;;;;;;21.83;70.99;65284.56;5031977;28;20699;-61
2023/06/12 10:48:06;;;;;;;2.97;2.67;;;;;;;22.13;69.61;65315.75;5031911;28;20285;-60
2023/06/12 10:50:32;;;;;;;4.78;2.88;;;;;;;22.23;69.87;65331.41;5033092;28;20206;-60
2023/06/12 10:53:01;;;;;;;3.70;2.90;;;;;;;22.07;68.80;65306.56;5030886;28;20208;-62
2023/06/12 10:55:26;;;;;;;6.35;2.85;;;;;;;22.23;71.18;65326.81;5033006;28;20190;-60
2023/06/12 10:57:57;;;;;;;2.72;2.53;;;;;;;21.96;69.67;65296.41;5032876;28;20626;-60
2023/06/12 11:00:28;;;;;;;6.57;3.60;;;;;;;22.21;69.25;65324.63;5032831;28;20292;-60
2023/06/12 11:02:57;;;;;;;5.97;2.90;;;;;;;22.37;66.41;65341.75;5032934;28;20209;-61
2023/06/12 11:05:24;;;;;;;3.55;2.88;;;;;;;22.48;66.00;65353.94;5032756;28;20230;-61
2023/06/12 11:07:50;;;;;;;3.95;2.72;;;;;;;22.43;67.59;65350.97;5033016;28;20214;-60
2023/06/12 11:10:16;;;;;;;5.85;3.33;;;;;;;22.64;67.89;65371.13;5032726;28;20578;-61
2023/06/12 11:12:49;;;;;;;5.30;2.95;;;;;;;22.82;69.49;65391.06;5032790;28;20202;-61
2023/06/12 11:15:15;;;;;;;4.82;2.65;;;;;;;22.97;67.32;65405.09;5032653;28;20213;-61
2023/06/12 11:17:41;;;;;;;4.15;3.22;;;;;;;23.26;65.41;65439.78;5015202;28;20202;-60
2023/06/12 11:20:08;;;;;;;4.15;3.10;;;;;;;23.40;67.71;65455.31;5032803;28;20214;-59
2023/06/12 11:22:34;;;;;;;3.63;3.03;;;;;;;23.62;68.83;65479.16;5032815;28;20633;-58
2023/06/12 11:25:00;;;;;;;3.83;2.83;;;;;;;23.80;65.39;65499.66;5032554;28;20218;-57
2023/06/12 11:27:26;;;;;;;3.53;2.53;;;;;;;24.08;61.10;65527.56;5032703;28;20248;-57
2023/06/12 11:29:52;;;;;;;5.72;2.92;;;;;;;24.03;63.90;65525.19;5032486;28;20679;-59